Time;durP1;ratioP1;P1;durP2;ratioP2;P2;SDS_P1;SDS_P2;PMS_P1;PMS_P2;Temp;Humidity;BMP_temperature;BMP_pressure;BME280_temperature;BME280_humidity;BME280_pressure;Samples;Min_cycle;Max_cycle;Signal;HPM_P1;HPM_P2
2022/03/27 00:00:52;;;;;;;2.75;2.40;;;16.00;65.20;;;;;;4206197;27;20048;-64
2022/03/27 00:03:14;;;;;;;4.07;2.60;;;16.00;65.20;;;;;;4206249;27;20056;-65
2022/03/27 00:05:38;;;;;;;3.72;2.42;;;16.00;65.20;;;;;;4206146;27;20059;-65
2022/03/27 00:08:00;;;;;;;4.50;2.50;;;16.00;65.20;;;;;;4203982;27;20068;-65
2022/03/27 00:10:22;;;;;;;3.05;2.85;;;16.00;65.30;;;;;;4202250;27;20079;-65
2022/03/27 00:12:44;;;;;;;3.42;1.98;;;16.00;65.30;;;;;;4205367;28;20052;-66
2022/03/27 00:15:09;;;;;;;3.20;2.90;;;16.00;65.30;;;;;;4206067;28;20071;-66
2022/03/27 00:17:32;;;;;;;2.80;2.60;;;16.00;65.40;;;;;;4206396;28;20055;-65
2022/03/27 00:19:54;;;;;;;2.40;2.20;;;15.90;65.30;;;;;;4204591;28;20036;-65
2022/03/27 00:22:18;;;;;;;2.22;2.13;;;15.90;65.40;;;;;;4222919;27;20056;-65
2022/03/27 00:24:40;;;;;;;3.20;2.40;;;15.90;65.60;;;;;;4222461;27;20043;-65
2022/03/27 00:27:03;;;;;;;3.17;2.20;;;15.90;65.50;;;;;;4222778;27;20812;-65
2022/03/27 00:29:25;;;;;;;2.72;2.53;;;15.90;65.50;;;;;;4219768;28;20048;-65
2022/03/27 00:31:47;;;;;;;2.58;2.00;;;15.90;65.60;;;;;;4222715;28;20072;-65
2022/03/27 00:34:11;;;;;;;2.72;2.22;;;15.90;65.70;;;;;;4222709;28;20047;-65
2022/03/27 00:36:33;;;;;;;2.47;1.90;;;15.90;65.70;;;;;;4222626;28;20044;-65
2022/03/27 00:38:56;;;;;;;2.25;1.80;;;15.90;65.70;;;;;;4222623;27;20082;-65
2022/03/27 00:41:19;;;;;;;4.20;2.58;;;15.90;65.70;;;;;;4221983;27;20533;-65
2022/03/27 00:43:42;;;;;;;3.17;2.35;;;15.90;65.80;;;;;;4222199;27;20464;-65
2022/03/27 00:46:04;;;;;;;4.32;2.42;;;15.90;66.60;;;;;;4222468;27;20051;-66
2022/03/27 00:48:27;;;;;;;2.78;2.03;;;15.90;65.80;;;;;;4221857;27;20470;-66
2022/03/27 00:50:50;;;;;;;2.20;2.00;;;15.90;65.90;;;;;;4222412;28;20569;-66
2022/03/27 00:53:12;;;;;;;4.32;2.20;;;15.80;65.70;;;;;;4222166;28;20051;-66
2022/03/27 00:55:36;;;;;;;3.22;2.08;;;15.80;65.70;;;;;;4222376;28;20047;-66
2022/03/27 00:57:58;;;;;;;4.63;2.38;;;15.80;65.70;;;;;;4220055;27;20051;-65
2022/03/27 01:00:41;;;;;;;2.40;2.08;;;15.80;65.80;;;;;;4211037;28;20051;-66
2022/03/27 01:03:05;;;;;;;3.10;2.40;;;15.80;65.90;;;;;;4210607;28;20040;-66
2022/03/27 01:05:28;;;;;;;4.10;2.40;;;15.80;65.90;;;;;;4210781;28;20040;-67
2022/03/27 01:07:50;;;;;;;4.43;2.13;;;15.80;65.90;;;;;;4210121;28;20452;-66
2022/03/27 01:10:11;;;;;;;7.15;2.90;;;15.80;65.80;;;;;;4209149;28;20467;-66
2022/03/27 01:12:39;;;;;;;9.10;3.25;;;15.80;65.90;;;;;;4210204;28;20101;-66
2022/03/27 01:15:01;;;;;;;8.25;2.95;;;15.80;65.80;;;;;;4207963;28;20169;-66
2022/03/27 01:17:27;;;;;;;6.13;3.50;;;15.80;66.80;;;;;;4208907;28;20138;-66
2022/03/27 01:19:52;;;;;;;6.35;3.65;;;15.80;65.90;;;;;;4208867;28;20135;-66
2022/03/27 01:22:16;;;;;;;4.22;3.10;;;15.70;65.90;;;;;;4210107;28;20048;-64
2022/03/27 01:24:39;;;;;;;3.40;2.33;;;15.80;66.00;;;;;;4209560;28;20143;-65
2022/03/27 01:27:01;;;;;;;3.08;2.75;;;15.70;66.00;;;;;;4209911;28;20059;-65
2022/03/27 01:29:23;;;;;;;3.67;2.90;;;15.70;65.90;;;;;;4209982;28;20055;-66
2022/03/27 01:31:46;;;;;;;3.50;2.70;;;15.70;66.10;;;;;;4209716;28;20072;-65
2022/03/27 01:34:08;;;;;;;5.03;2.92;;;15.70;66.10;;;;;;4210131;28;20043;-65
2022/03/27 01:36:34;;;;;;;2.50;2.25;;;15.70;66.10;;;;;;4210352;28;20040;-65
2022/03/27 01:38:58;;;;;;;2.38;2.17;;;15.70;67.00;;;;;;4209888;28;20070;-66
2022/03/27 01:41:21;;;;;;;4.50;2.70;;;15.70;66.20;;;;;;4193480;28;20056;-65
2022/03/27 01:43:42;;;;;;;1.83;1.73;;;15.70;66.20;;;;;;4193470;28;20423;-66
2022/03/27 01:46:05;;;;;;;2.35;2.15;;;15.70;66.20;;;;;;4194167;28;20044;-66
2022/03/27 01:48:27;;;;;;;2.00;1.90;;;15.70;66.30;;;;;;4193260;28;20415;-66
2022/03/27 01:50:58;;;;;;;2.65;2.30;;;15.60;66.30;;;;;;4196632;28;20076;-65
2022/03/27 01:53:20;;;;;;;3.30;3.10;;;15.60;66.20;;;;;;4208746;28;20078;-65
2022/03/27 01:55:44;;;;;;;2.47;2.20;;;15.60;66.40;;;;;;4209467;28;20079;-66
2022/03/27 01:58:08;;;;;;;2.58;2.40;;;15.60;66.40;;;;;;4209265;28;20082;-66
2022/03/27 02:00:30;;;;;;;3.20;2.70;;;15.60;66.50;;;;;;4209371;28;20511;-66
2022/03/27 02:02:53;;;;;;;3.03;2.83;;;15.60;66.50;;;;;;4210148;28;20101;-66
2022/03/27 02:05:16;;;;;;;3.20;2.80;;;15.60;66.50;;;;;;4209657;28;20474;-67
2022/03/27 02:07:44;;;;;;;6.00;2.85;;;15.60;66.50;;;;;;4209287;28;20101;-66
2022/03/27 02:10:07;;;;;;;21.33;2.83;;;15.50;66.50;;;;;;4209886;28;20083;-66
2022/03/27 02:12:34;;;;;;;19.42;2.83;;;15.50;66.60;;;;;;4209326;28;20514;-67
2022/03/27 02:14:56;;;;;;;7.63;2.88;;;15.50;66.50;;;;;;4193198;28;20059;-66
2022/03/27 02:17:18;;;;;;;5.68;2.72;;;15.50;66.60;;;;;;4193061;28;20067;-66
2022/03/27 02:19:40;;;;;;;14.23;2.58;;;15.50;66.60;;;;;;4207118;28;20150;-66
2022/03/27 02:22:02;;;;;;;13.43;2.55;;;15.50;66.60;;;;;;4210099;28;20044;-67
2022/03/27 02:24:25;;;;;;;13.25;2.85;;;15.50;66.70;;;;;;4209818;28;20055;-66
2022/03/27 02:26:49;;;;;;;12.80;3.00;;;15.50;66.70;;;;;;4209136;28;20047;-65
2022/03/27 02:29:14;;;;;;;11.82;2.58;;;15.50;66.70;;;;;;4208148;28;20425;-66
2022/03/27 02:31:36;;;;;;;10.85;2.67;;;15.50;66.80;;;;;;4209379;28;20044;-66
2022/03/27 02:33:58;;;;;;;6.93;2.60;;;15.40;66.80;;;;;;4207568;28;20044;-66
2022/03/27 02:36:20;;;;;;;2.40;2.20;;;15.40;66.70;;;;;;4209304;28;20081;-66
2022/03/27 02:38:42;;;;;;;3.95;2.67;;;15.40;66.80;;;;;;4208809;28;21450;-67
2022/03/27 02:41:05;;;;;;;20.20;2.60;;;15.40;66.80;;;;;;4208430;27;20451;-67
2022/03/27 02:43:27;;;;;;;6.18;2.53;;;15.40;66.70;;;;;;4208897;28;20412;-68
2022/03/27 02:45:51;;;;;;;22.67;2.90;;;15.40;66.70;;;;;;4208988;28;20693;-68
2022/03/27 02:48:13;;;;;;;18.17;2.95;;;15.40;66.80;;;;;;4208633;28;20064;-66
2022/03/27 02:50:37;;;;;;;10.75;3.83;;;15.40;66.80;;;;;;4208879;28;20124;-65
2022/03/27 02:52:59;;;;;;;27.58;3.35;;;15.40;66.80;;;;;;4209142;28;20042;-65
2022/03/27 02:55:22;;;;;;;25.38;3.08;;;15.40;66.90;;;;;;4208836;28;20430;-66
2022/03/27 02:57:45;;;;;;;15.57;2.85;;;15.40;67.00;;;;;;4208371;28;20143;-66
2022/03/27 03:00:09;;;;;;;18.35;2.65;;;15.40;67.00;;;;;;4208331;28;20559;-67
2022/03/27 03:02:32;;;;;;;44.72;3.00;;;15.30;67.00;;;;;;4191853;28;20443;-66
2022/03/27 03:04:56;;;;;;;23.10;3.05;;;15.30;67.00;;;;;;4201599;28;20457;-67
2022/03/27 03:07:18;;;;;;;41.05;10.52;;;15.30;67.00;;;;;;4208994;28;20427;-68
2022/03/27 03:09:40;;;;;;;22.60;2.63;;;15.30;67.10;;;;;;4208645;28;20064;-65
2022/03/27 03:12:03;;;;;;;26.33;2.33;;;15.30;67.20;;;;;;4208680;28;20051;-65
2022/03/27 03:14:25;;;;;;;16.35;2.20;;;15.30;67.20;;;;;;4191958;28;20040;-65
2022/03/27 03:16:49;;;;;;;15.43;3.05;;;15.30;67.20;;;;;;4192111;28;20064;-65
2022/03/27 03:19:13;;;;;;;16.67;2.40;;;15.30;67.20;;;;;;4191752;28;20040;-65
2022/03/27 03:21:35;;;;;;;12.15;1.90;;;15.30;67.20;;;;;;4192296;28;20048;-65
2022/03/27 03:23:57;;;;;;;15.32;1.80;;;15.20;67.30;;;;;;4191029;28;20064;-65
2022/03/27 03:26:19;;;;;;;15.48;2.33;;;15.30;67.30;;;;;;4208798;28;20059;-65
2022/03/27 03:28:41;;;;;;;17.58;2.13;;;15.20;67.20;;;;;;4208707;28;20093;-65
2022/03/27 03:31:05;;;;;;;12.88;1.60;;;15.20;67.30;;;;;;4208418;28;20040;-65
2022/03/27 03:33:28;;;;;;;20.23;1.63;;;15.20;67.30;;;;;;4208665;28;20044;-64
2022/03/27 03:35:51;;;;;;;16.17;1.60;;;15.20;67.00;;;;;;4208618;28;20131;-64
2022/03/27 03:38:14;;;;;;;12.27;1.45;;;15.20;67.30;;;;;;4208722;28;20051;-64
2022/03/27 03:40:35;;;;;;;8.07;1.30;;;15.20;67.50;;;;;;4208473;28;20058;-64
2022/03/27 03:42:57;;;;;;;6.63;1.48;;;15.20;67.50;;;;;;4207205;28;20062;-65
2022/03/27 03:45:20;;;;;;;13.13;1.50;;;15.20;67.40;;;;;;4207980;28;20060;-65
2022/03/27 03:47:42;;;;;;;17.10;1.40;;;15.20;67.40;;;;;;4208575;28;20165;-65
2022/03/27 03:50:05;;;;;;;8.70;1.50;;;15.20;67.30;;;;;;4208810;28;20044;-64
2022/03/27 03:52:28;;;;;;;2.67;1.42;;;15.10;67.30;;;;;;4208531;28;20138;-64
2022/03/27 03:54:50;;;;;;;9.05;1.42;;;15.20;67.50;;;;;;4208206;28;20406;-64
2022/03/27 03:57:12;;;;;;;4.63;1.45;;;15.10;68.10;;;;;;4208466;28;20454;-65
2022/03/27 03:59:36;;;;;;;47.42;21.48;;;15.10;67.70;;;;;;4207032;28;20070;-64
2022/03/27 04:01:58;;;;;;;4.72;1.58;;;15.10;67.70;;;;;;4208257;28;20474;-64
2022/03/27 04:04:21;;;;;;;5.75;1.60;;;15.10;67.80;;;;;;4208455;28;20051;-65
2022/03/27 04:06:43;;;;;;;5.53;1.58;;;15.10;67.90;;;;;;4208548;28;20044;-65
2022/03/27 04:09:07;;;;;;;12.07;1.85;;;15.10;67.80;;;;;;4191682;28;20051;-65
2022/03/27 04:11:29;;;;;;;6.32;1.90;;;15.10;67.80;;;;;;4191214;28;20056;-65
2022/03/27 04:13:51;;;;;;;7.93;2.10;;;15.10;67.90;;;;;;4191235;28;20060;-65
2022/03/27 04:16:14;;;;;;;12.77;2.22;;;15.10;67.90;;;;;;4191715;28;20055;-65
2022/03/27 04:18:36;;;;;;;14.23;2.22;;;15.10;68.00;;;;;;4204761;28;20064;-65
2022/03/27 04:20:58;;;;;;;11.45;2.63;;;15.10;68.10;;;;;;4208429;28;20502;-65
2022/03/27 04:23:20;;;;;;;27.38;2.85;;;15.10;67.90;;;;;;4207141;28;20838;-65
2022/03/27 04:25:43;;;;;;;31.35;2.78;;;15.10;67.90;;;;;;4208747;28;20500;-65
2022/03/27 04:28:06;;;;;;;19.17;2.60;;;15.00;68.00;;;;;;4208311;28;20059;-65
2022/03/27 04:30:28;;;;;;;11.02;2.70;;;15.00;68.00;;;;;;4208315;28;20059;-65
2022/03/27 04:32:51;;;;;;;21.73;2.55;;;15.00;68.00;;;;;;4206917;28;20182;-65
2022/03/27 04:35:13;;;;;;;8.07;2.35;;;15.10;68.00;;;;;;4195334;28;20048;-65
2022/03/27 04:37:39;;;;;;;12.27;2.70;;;15.10;67.90;;;;;;4211341;28;20052;-66
2022/03/27 04:40:02;;;;;;;22.02;2.70;;;15.00;67.80;;;;;;4211130;28;20097;-65
2022/03/27 04:42:26;;;;;;;28.50;2.70;;;15.10;68.00;;;;;;4211413;28;20472;-65
2022/03/27 04:44:48;;;;;;;30.70;3.08;;;15.00;67.80;;;;;;4210916;28;20044;-65
2022/03/27 04:47:10;;;;;;;18.02;3.10;;;15.00;68.70;;;;;;4211128;28;20114;-65
2022/03/27 04:49:33;;;;;;;12.52;2.10;;;15.00;67.70;;;;;;4210494;28;20510;-65
2022/03/27 04:51:55;;;;;;;13.10;1.92;;;15.00;67.80;;;;;;4210836;28;20054;-65
2022/03/27 04:54:17;;;;;;;12.13;2.08;;;15.00;67.80;;;;;;4210814;28;20056;-66
2022/03/27 04:56:41;;;;;;;5.70;1.88;;;15.00;68.00;;;;;;4210918;28;20246;-66
2022/03/27 04:59:04;;;;;;;5.68;2.08;;;15.00;68.00;;;;;;4210843;27;20554;-65
2022/03/27 05:01:26;;;;;;;2.00;1.60;;;14.90;67.80;;;;;;4211017;28;20105;-65
2022/03/27 05:03:48;;;;;;;2.92;1.30;;;15.00;67.90;;;;;;4211207;28;20059;-65
2022/03/27 05:06:11;;;;;;;1.55;1.45;;;14.90;67.90;;;;;;4210732;28;20044;-65
2022/03/27 05:08:34;;;;;;;1.20;1.20;;;14.90;67.90;;;;;;4210627;28;20139;-65
2022/03/27 05:10:56;;;;;;;3.88;1.35;;;14.90;67.90;;;;;;4210920;28;20051;-65
2022/03/27 05:13:18;;;;;;;1.25;1.13;;;14.90;67.90;;;;;;4210796;28;20063;-65
2022/03/27 05:15:41;;;;;;;1.52;1.42;;;14.90;67.90;;;;;;4210880;28;20059;-65
2022/03/27 05:18:04;;;;;;;1.73;1.17;;;14.90;68.00;;;;;;4210325;28;20143;-65
2022/03/27 05:20:28;;;;;;;1.40;1.20;;;14.90;68.10;;;;;;4210245;28;20101;-66
2022/03/27 05:22:50;;;;;;;3.45;1.10;;;14.90;68.10;;;;;;4208803;28;20143;-66
2022/03/27 05:25:13;;;;;;;2.40;1.30;;;14.90;69.00;;;;;;4210487;28;20063;-65
2022/03/27 05:27:42;;;;;;;1.25;1.15;;;14.90;68.10;;;;;;4210396;28;20131;-66
2022/03/27 05:30:04;;;;;;;2.47;2.10;;;14.90;68.10;;;;;;4210546;28;20544;-65
2022/03/27 05:32:28;;;;;;;1.10;1.00;;;14.90;68.10;;;;;;4210300;28;20051;-65
2022/03/27 05:34:49;;;;;;;1.98;1.17;;;14.90;68.10;;;;;;4210448;28;20044;-65
2022/03/27 05:37:11;;;;;;;4.68;1.17;;;14.90;68.20;;;;;;4209895;28;20105;-65
2022/03/27 05:39:35;;;;;;;8.27;2.45;;;14.80;68.10;;;;;;4210142;28;20048;-65
2022/03/27 05:41:57;;;;;;;3.28;1.20;;;14.80;68.10;;;;;;4210263;28;20062;-65
2022/03/27 05:44:19;;;;;;;1.73;1.40;;;14.80;68.00;;;;;;4209004;28;20170;-65
2022/03/27 05:46:41;;;;;;;7.85;2.60;;;14.90;68.10;;;;;;4208576;28;20047;-65
2022/03/27 05:49:04;;;;;;;5.38;1.67;;;14.80;68.10;;;;;;4209393;28;20136;-65
2022/03/27 05:51:27;;;;;;;7.25;1.80;;;14.90;68.20;;;;;;4209613;28;20561;-65
2022/03/27 05:53:49;;;;;;;5.70;1.48;;;14.90;69.30;;;;;;4193046;28;20040;-67
2022/03/27 05:56:11;;;;;;;7.22;1.80;;;14.80;68.20;;;;;;4199960;28;20488;-65
2022/03/27 05:58:35;;;;;;;4.20;2.28;;;14.80;68.00;;;;;;4210014;28;20060;-66
2022/03/27 06:00:57;;;;;;;8.02;2.25;;;14.80;67.90;;;;;;4208004;28;20048;-66
2022/03/27 06:03:20;;;;;;;9.10;2.90;;;14.80;67.90;;;;;;4209835;28;20052;-65
2022/03/27 06:05:43;;;;;;;9.43;2.38;;;14.80;68.20;;;;;;4209779;28;20070;-66
2022/03/27 06:08:06;;;;;;;12.32;2.50;;;14.80;68.40;;;;;;4209878;28;20051;-67
2022/03/27 06:10:31;;;;;;;11.85;2.90;;;14.80;68.40;;;;;;4209344;28;20131;-66
2022/03/27 06:12:54;;;;;;;13.43;3.03;;;14.80;68.40;;;;;;4209703;28;20494;-66
2022/03/27 06:15:16;;;;;;;7.80;2.00;;;14.80;68.40;;;;;;4209660;28;20052;-66
2022/03/27 06:17:40;;;;;;;10.75;2.75;;;14.80;68.60;;;;;;4210202;28;20040;-66
2022/03/27 06:20:02;;;;;;;5.95;2.20;;;14.80;68.70;;;;;;4209757;27;20101;-65
2022/03/27 06:22:25;;;;;;;10.73;2.92;;;14.80;68.50;;;;;;4209583;28;20055;-66
2022/03/27 06:24:47;;;;;;;8.40;2.83;;;14.80;68.40;;;;;;4193245;28;20044;-66
2022/03/27 06:27:10;;;;;;;10.13;2.72;;;14.80;68.50;;;;;;4193219;28;20045;-65
2022/03/27 06:29:32;;;;;;;13.38;3.03;;;14.80;68.60;;;;;;4207068;28;20458;-64
2022/03/27 06:31:54;;;;;;;15.30;3.13;;;14.80;68.60;;;;;;4208698;28;20404;-65
2022/03/27 06:34:17;;;;;;;17.33;3.63;;;14.80;68.40;;;;;;4208741;28;20135;-64
2022/03/27 06:36:41;;;;;;;16.25;4.07;;;14.80;68.40;;;;;;4209562;28;20129;-64
2022/03/27 06:39:06;;;;;;;15.70;4.05;;;14.80;68.40;;;;;;4209427;28;20048;-64
2022/03/27 06:41:29;;;;;;;28.75;5.40;;;14.80;68.40;;;;;;4209299;28;20532;-64
2022/03/27 06:43:51;;;;;;;28.90;5.18;;;14.80;67.70;;;;;;4208990;28;20421;-64
2022/03/27 06:46:16;;;;;;;37.60;8.68;;;14.80;67.50;;;;;;4209437;28;20048;-64
2022/03/27 06:48:39;;;;;;;24.25;7.05;;;14.80;67.80;;;;;;4206313;28;20537;-64
2022/03/27 06:51:01;;;;;;;35.60;6.07;;;14.80;67.90;;;;;;4208861;28;20056;-65
2022/03/27 06:53:24;;;;;;;27.65;6.13;;;14.80;67.90;;;;;;4209180;28;20051;-64
2022/03/27 06:55:48;;;;;;;28.27;6.25;;;14.80;68.30;;;;;;4209173;28;20067;-65
2022/03/27 06:58:11;;;;;;;33.22;6.47;;;14.80;68.90;;;;;;4208440;28;20442;-66
2022/03/27 07:03:13;;;;;;;32.17;6.80;;;14.90;68.20;;;;;;4208317;28;20575;-65
2022/03/27 07:05:39;;;;;;;33.03;6.80;;;14.80;67.80;;;;;;4207801;28;20056;-66
2022/03/27 07:08:01;;;;;;;31.50;6.85;;;14.80;68.40;;;;;;4208754;28;20079;-66
2022/03/27 07:10:23;;;;;;;34.03;7.68;;;14.80;67.30;;;;;;4207788;28;20483;-65
2022/03/27 07:12:48;;;;;;;37.03;7.32;;;14.80;67.60;;;;;;4208311;28;20051;-65
2022/03/27 07:15:10;;;;;;;39.60;7.80;;;14.80;66.30;;;;;;4193555;28;20041;-66
2022/03/27 07:17:43;;;;;;;38.25;7.13;;;14.80;65.30;;;;;;4209079;28;20058;-66
2022/03/27 07:20:07;;;;;;;35.72;7.25;;;14.80;65.10;;;;;;4209409;28;20093;-65
2022/03/27 07:22:29;;;;;;;31.58;7.30;;;14.80;65.40;;;;;;4208546;28;20047;-66
2022/03/27 07:24:51;;;;;;;30.08;7.95;;;14.70;68.10;;;;;;4208393;28;20082;-65
2022/03/27 07:27:13;;;;;;;36.20;7.60;;;14.70;68.50;;;;;;4208976;28;20052;-65
2022/03/27 07:29:37;;;;;;;34.03;7.00;;;14.70;68.80;;;;;;4209142;28;20046;-66
2022/03/27 07:31:59;;;;;;;32.00;6.47;;;14.70;71.00;;;;;;4208467;28;20048;-66
2022/03/27 07:34:26;;;;;;;44.08;8.80;;;14.70;69.50;;;;;;4208709;28;20059;-66
2022/03/27 07:36:48;;;;;;;34.08;7.28;;;14.70;69.20;;;;;;4209036;28;20068;-67
2022/03/27 07:39:11;;;;;;;36.25;8.07;;;14.70;67.80;;;;;;4207264;28;20054;-66
2022/03/27 07:41:33;;;;;;;32.40;6.45;;;14.70;68.30;;;;;;4208637;28;20059;-66
2022/03/27 07:43:55;;;;;;;25.33;6.57;;;14.70;68.60;;;;;;4206934;28;20055;-65
2022/03/27 07:46:19;;;;;;;36.97;7.25;;;14.60;67.50;;;;;;4208742;28;20056;-65
2022/03/27 07:48:41;;;;;;;31.85;7.57;;;14.60;69.50;;;;;;4191776;28;20052;-66
2022/03/27 07:51:04;;;;;;;35.55;8.05;;;14.60;68.00;;;;;;4190825;28;20139;-66
2022/03/27 07:53:27;;;;;;;37.72;9.10;;;14.70;67.00;;;;;;4192107;28;20045;-66
2022/03/27 07:55:49;;;;;;;35.30;8.43;;;14.70;67.40;;;;;;4195939;28;20047;-66
2022/03/27 07:58:11;;;;;;;31.08;7.63;;;14.60;68.20;;;;;;4197646;28;20044;-66
2022/03/27 08:00:33;;;;;;;31.52;7.30;;;14.60;68.20;;;;;;4205760;28;20117;-66
2022/03/27 08:02:57;;;;;;;42.50;8.63;;;14.60;68.70;;;;;;4208432;28;20044;-66
2022/03/27 08:05:21;;;;;;;34.03;7.55;;;14.60;69.20;;;;;;4207993;28;20399;-66
2022/03/27 08:07:45;;;;;;;35.05;7.40;;;14.60;68.50;;;;;;4207108;28;20078;-67
2022/03/27 08:10:08;;;;;;;37.65;9.73;;;14.60;67.90;;;;;;4209812;28;20063;-67
2022/03/27 08:12:30;;;;;;;42.38;9.27;;;14.60;67.20;;;;;;4194850;28;20105;-66
2022/03/27 08:14:52;;;;;;;36.25;8.52;;;14.70;67.70;;;;;;4212148;28;20051;-66
2022/03/27 08:17:15;;;;;;;42.38;10.27;;;14.60;66.90;;;;;;4198032;28;20399;-66
2022/03/27 08:19:38;;;;;;;42.63;9.32;;;14.70;67.00;;;;;;4194987;28;20056;-66
2022/03/27 08:22:01;;;;;;;29.17;8.10;;;14.60;66.30;;;;;;4199537;28;20123;-66
2022/03/27 08:24:23;;;;;;;33.53;8.20;;;14.60;65.90;;;;;;4211611;28;20040;-66
2022/03/27 08:26:56;;;;;;;37.95;7.70;;;14.70;65.90;;;;;;4210115;28;20125;-66
2022/03/27 08:29:19;;;;;;;40.63;8.60;;;14.70;66.40;;;;;;4211639;28;20479;-66
2022/03/27 08:31:41;;;;;;;33.47;7.75;;;14.70;66.50;;;;;;4212002;28;20479;-66
2022/03/27 08:34:04;;;;;;;40.20;8.30;;;14.80;66.70;;;;;;4211258;28;20048;-66
2022/03/27 08:36:28;;;;;;;30.73;7.95;;;14.80;67.20;;;;;;4211713;28;20055;-66
2022/03/27 08:38:50;;;;;;;38.83;7.20;;;14.90;66.40;;;;;;4211446;28;20079;-66
2022/03/27 08:41:12;;;;;;;35.97;8.02;;;14.90;65.00;;;;;;4211351;28;20052;-66
2022/03/27 08:43:34;;;;;;;40.10;7.78;;;15.00;65.00;;;;;;4211093;28;20059;-66
2022/03/27 08:45:59;;;;;;;32.65;7.68;;;15.00;65.10;;;;;;4211613;28;20097;-66
2022/03/27 08:48:23;;;;;;;38.13;8.70;;;15.00;64.40;;;;;;4210228;28;20078;-66
2022/03/27 08:50:51;;;;;;;35.45;7.35;;;15.00;64.30;;;;;;4211188;28;20078;-67
2022/03/27 08:53:20;;;;;;;37.75;7.68;;;15.00;65.10;;;;;;4210434;28;20048;-69
2022/03/27 08:55:51;;;;;;;34.90;8.15;;;15.10;64.40;;;;;;4208903;28;20056;-66
2022/03/27 08:58:14;;;;;;;36.87;6.87;;;15.10;64.20;;;;;;4209556;28;20059;-66
2022/03/27 09:00:36;;;;;;;34.08;7.70;;;15.20;63.60;;;;;;4209548;28;20040;-66
2022/03/27 09:03:00;;;;;;;31.25;6.60;;;15.20;63.50;;;;;;4210892;28;20134;-66
2022/03/27 09:05:23;;;;;;;36.40;7.18;;;15.20;62.40;;;;;;4211063;28;20664;-67
2022/03/27 09:07:45;;;;;;;34.42;7.07;;;15.20;62.80;;;;;;4211222;28;20459;-66
2022/03/27 09:10:10;;;;;;;28.73;7.47;;;15.20;63.80;;;;;;4210602;28;20651;-66
2022/03/27 09:12:35;;;;;;;37.42;6.53;;;15.20;64.20;;;;;;4210894;28;20051;-66
2022/03/27 09:14:57;;;;;;;35.15;8.15;;;15.20;64.50;;;;;;4210065;28;20070;-66
2022/03/27 09:17:19;;;;;;;32.40;7.43;;;15.20;65.30;;;;;;4210626;28;20078;-66
2022/03/27 09:19:50;;;;;;;34.90;7.13;;;15.30;64.10;;;;;;4210480;28;20055;-67
2022/03/27 09:22:14;;;;;;;33.15;7.82;;;15.30;63.30;;;;;;4210475;28;20071;-66
2022/03/27 09:24:38;;;;;;;35.20;7.05;;;15.30;63.50;;;;;;4210126;28;20155;-65
2022/03/27 09:27:02;;;;;;;36.67;7.40;;;15.40;64.60;;;;;;4210676;28;20127;-66
2022/03/27 09:29:24;;;;;;;30.58;7.28;;;15.40;64.00;;;;;;4210126;28;20129;-66
2022/03/27 09:31:57;;;;;;;36.53;7.18;;;15.40;63.70;;;;;;4209807;28;20043;-66
2022/03/27 09:34:19;;;;;;;31.20;6.40;;;15.40;64.80;;;;;;4210113;28;20044;-66
2022/03/27 09:36:45;;;;;;;36.53;7.55;;;15.50;64.10;;;;;;4206000;28;20119;-66
2022/03/27 09:39:11;;;;;;;38.03;6.90;;;15.50;63.70;;;;;;4210650;28;20127;-66
2022/03/27 09:41:39;;;;;;;38.17;8.30;;;15.50;63.20;;;;;;4210560;28;20087;-66
2022/03/27 09:44:04;;;;;;;31.02;7.13;;;15.50;62.80;;;;;;4209281;28;20048;-66
2022/03/27 09:46:27;;;;;;;34.38;6.78;;;15.60;62.70;;;;;;4210207;28;20051;-67
2022/03/27 09:48:56;;;;;;;31.45;6.80;;;15.60;63.40;;;;;;4210387;28;20055;-67
2022/03/27 09:51:18;;;;;;;29.27;5.97;;;15.60;62.10;;;;;;4208872;28;20048;-67
2022/03/27 09:53:40;;;;;;;32.40;7.15;;;15.60;63.30;;;;;;4209777;28;20054;-67
2022/03/27 09:56:15;;;;;;;21.98;5.82;;;15.60;62.70;;;;;;4199389;28;20055;-67
2022/03/27 09:58:38;;;;;;;25.88;6.53;;;15.60;61.00;;;;;;4209422;28;20454;-65
2022/03/27 10:01:16;;;;;;;39.13;8.27;;;15.60;61.00;;;;;;4209527;28;20131;-66
2022/03/27 10:03:58;;;;;;;30.45;7.25;;;15.70;61.70;;;;;;4205982;28;20052;-65
2022/03/27 10:06:28;;;;;;;23.80;5.78;;;15.70;61.10;;;;;;4209217;28;20360;-66
2022/03/27 10:08:50;;;;;;;29.90;6.53;;;15.70;61.00;;;;;;4209120;28;20042;-67
2022/03/27 10:11:18;;;;;;;24.88;5.78;;;15.70;60.10;;;;;;4206108;28;20113;-68
2022/03/27 10:13:41;;;;;;;28.13;6.88;;;15.70;60.50;;;;;;4208822;28;20074;-67
2022/03/27 10:16:04;;;;;;;28.85;7.15;;;15.70;59.70;;;;;;4209114;28;20048;-67
2022/03/27 10:18:28;;;;;;;24.38;5.82;;;15.70;59.10;;;;;;4209662;28;20056;-66
2022/03/27 10:20:57;;;;;;;30.17;6.63;;;15.70;59.20;;;;;;4209703;28;20377;-66
2022/03/27 10:23:22;;;;;;;28.00;5.93;;;15.70;57.80;;;;;;4208032;28;20056;-66
2022/03/27 10:25:46;;;;;;;30.73;6.35;;;15.70;58.30;;;;;;4208057;28;20066;-66
2022/03/27 10:28:09;;;;;;;19.20;5.00;;;15.70;59.50;;;;;;4209677;28;20407;-64
2022/03/27 10:30:31;;;;;;;27.40;6.80;;;15.70;59.70;;;;;;4209346;28;20432;-66
2022/03/27 10:32:54;;;;;;;32.17;6.20;;;15.80;58.10;;;;;;4209145;28;20063;-66
2022/03/27 10:35:39;;;;;;;27.00;4.75;;;15.80;58.30;;;;;;4209450;28;20060;-65
2022/03/27 10:38:10;;;;;;;25.08;6.22;;;15.80;57.90;;;;;;4207613;28;20067;-66
2022/03/27 10:40:39;;;;;;;27.08;4.65;;;15.80;58.10;;;;;;4208647;28;20132;-66
2022/03/27 10:43:06;;;;;;;24.67;6.30;;;15.80;59.70;;;;;;4209618;28;20472;-66
2022/03/27 10:45:28;;;;;;;34.20;4.78;;;15.80;60.00;;;;;;4208087;28;20052;-66
2022/03/27 10:48:10;;;;;;;24.80;5.65;;;15.80;58.70;;;;;;4209093;28;20071;-66
2022/03/27 10:50:48;;;;;;;25.95;5.47;;;15.90;58.00;;;;;;4209325;28;20048;-65
2022/03/27 10:53:11;;;;;;;22.13;5.13;;;15.90;56.50;;;;;;4208835;28;20138;-65
2022/03/27 10:55:38;;;;;;;21.70;4.32;;;15.90;55.60;;;;;;4208997;28;20051;-66
2022/03/27 10:58:00;;;;;;;20.00;4.57;;;15.90;55.70;;;;;;4208750;28;20040;-65
2022/03/27 11:00:40;;;;;;;18.35;4.25;;;15.90;55.50;;;;;;4209476;28;20051;-65
2022/03/27 11:03:03;;;;;;;13.48;3.67;;;15.90;56.50;;;;;;4209048;28;20050;-65
2022/03/27 11:06:01;;;;;;;18.25;3.58;;;15.90;55.50;;;;;;4208754;28;20052;-66
2022/03/27 11:08:47;;;;;;;13.88;2.97;;;15.90;52.80;;;;;;4205234;28;20055;-66
2022/03/27 11:11:09;;;;;;;14.88;3.78;;;15.90;54.10;;;;;;4204233;28;20044;-66
2022/03/27 11:13:40;;;;;;;21.80;4.03;;;15.90;54.10;;;;;;4208480;28;20136;-66
2022/03/27 11:16:03;;;;;;;19.35;4.88;;;15.90;54.80;;;;;;4209415;28;20044;-65
2022/03/27 11:18:35;;;;;;;16.65;4.10;;;16.00;53.90;;;;;;4205222;28;20054;-66
2022/03/27 11:20:58;;;;;;;20.42;4.68;;;16.00;53.90;;;;;;4190310;28;20091;-64
2022/03/27 11:23:26;;;;;;;12.77;2.97;;;16.00;53.80;;;;;;4192361;28;20555;-64
2022/03/27 11:25:48;;;;;;;14.40;3.95;;;16.00;54.40;;;;;;4206261;28;20067;-64
2022/03/27 11:28:12;;;;;;;14.23;3.72;;;16.00;54.10;;;;;;4208542;28;20051;-65
2022/03/27 11:30:37;;;;;;;18.95;4.13;;;16.00;53.10;;;;;;4207701;28;20503;-64
2022/03/27 11:33:19;;;;;;;17.00;4.20;;;16.00;52.20;;;;;;4209105;28;20048;-64
2022/03/27 11:35:42;;;;;;;18.60;4.80;;;16.00;53.10;;;;;;4208792;28;20560;-65
2022/03/27 11:38:23;;;;;;;18.77;4.72;;;16.00;52.80;;;;;;4209011;28;20054;-64
2022/03/27 11:40:47;;;;;;;24.80;4.53;;;16.00;51.70;;;;;;4208120;28;20400;-65
2022/03/27 11:43:31;;;;;;;18.60;4.38;;;16.00;52.00;;;;;;4208569;28;20060;-65
2022/03/27 11:45:56;;;;;;;17.05;3.42;;;16.10;52.10;;;;;;4208532;28;20057;-65
2022/03/27 11:48:18;;;;;;;12.93;2.97;;;16.10;51.40;;;;;;4207829;28;20072;-64
2022/03/27 11:50:40;;;;;;;14.70;3.60;;;16.10;51.70;;;;;;4208542;28;20052;-65
2022/03/27 11:53:04;;;;;;;14.93;2.78;;;16.10;51.10;;;;;;4191793;28;20135;-65
2022/03/27 11:55:29;;;;;;;15.52;3.85;;;16.10;49.70;;;;;;4193068;28;20396;-65
2022/03/27 11:57:56;;;;;;;9.88;2.95;;;16.10;49.50;;;;;;4208102;28;20197;-65
2022/03/27 12:00:30;;;;;;;11.70;2.63;;;16.10;50.30;;;;;;4208340;28;20052;-65
2022/03/27 12:02:53;;;;;;;12.57;3.40;;;16.10;50.70;;;;;;4208347;28;20127;-65
2022/03/27 12:05:16;;;;;;;13.05;3.60;;;16.10;50.80;;;;;;4208583;28;20135;-65
2022/03/27 12:07:55;;;;;;;15.57;3.20;;;16.10;49.50;;;;;;4208252;28;20127;-65
2022/03/27 12:10:17;;;;;;;16.55;3.85;;;16.10;50.10;;;;;;4207374;28;20066;-65
2022/03/27 12:12:39;;;;;;;11.70;2.38;;;16.10;49.60;;;;;;4208127;28;20506;-65
2022/03/27 12:15:07;;;;;;;16.65;3.25;;;16.10;50.10;;;;;;4207305;28;20744;-65
2022/03/27 12:17:31;;;;;;;13.02;3.67;;;16.10;50.40;;;;;;4206601;28;20048;-64
2022/03/27 12:19:58;;;;;;;10.23;2.85;;;16.10;50.90;;;;;;4207391;28;20679;-64
2022/03/27 12:22:38;;;;;;;10.73;2.80;;;16.10;49.60;;;;;;4205456;28;20059;-65
2022/03/27 12:25:00;;;;;;;7.95;2.80;;;16.10;48.90;;;;;;4200725;28;20063;-65
2022/03/27 12:30:06;;;;;;;12.15;3.00;;;16.10;47.70;;;;;;4196643;28;20048;-65